Time;durP1;ratioP1;P1;durP2;ratioP2;P2;SDS_P1;SDS_P2;PMS_P1;PMS_P2;Temp;Humidity;BMP_temperature;BMP_pressure;BME280_temperature;BME280_humidity;BME280_pressure;Samples;Min_cycle;Max_cycle;Signal;HPM_P1;HPM_P2
2022/08/08 00:00:12;;;;;;;3.97;2.88;;;14.30;99.90;;;;;;4921623;29;20059;-74
2022/08/08 00:02:51;;;;;;;4.68;2.97;;;14.30;99.90;;;;;;4946561;28;20106;-75
2022/08/08 00:05:39;;;;;;;8.07;3.28;;;14.30;99.90;;;;;;4935510;28;20520;-73
2022/08/08 00:08:37;;;;;;;4.18;3.10;;;14.30;99.90;;;;;;5005474;28;20192;-73
2022/08/08 00:11:24;;;;;;;4.80;2.97;;;14.30;99.90;;;;;;5002360;28;20519;-75
2022/08/08 00:14:26;;;;;;;5.57;3.20;;;14.20;99.90;;;;;;4993147;28;20481;-73
2022/08/08 00:17:07;;;;;;;4.65;3.15;;;14.20;99.90;;;;;;5003167;28;20050;-74
2022/08/08 00:20:04;;;;;;;4.15;3.03;;;14.30;99.90;;;;;;5013740;28;20148;-75
2022/08/08 00:22:51;;;;;;;4.75;3.05;;;14.30;99.90;;;;;;5000071;28;20046;-72
2022/08/08 00:25:25;;;;;;;4.20;3.08;;;14.30;99.90;;;;;;5018149;28;20053;-73
2022/08/08 00:27:53;;;;;;;4.93;2.92;;;14.30;99.90;;;;;;5080540;28;20039;-75
2022/08/08 00:30:20;;;;;;;5.57;3.05;;;14.30;99.90;;;;;;5079395;28;20051;-72
2022/08/08 00:33:16;;;;;;;3.47;2.95;;;14.30;99.90;;;;;;5079777;28;20055;-74
2022/08/08 00:36:00;;;;;;;3.83;3.10;;;14.30;99.90;;;;;;4984334;28;20580;-75
2022/08/08 00:38:26;;;;;;;6.57;3.05;;;14.20;99.90;;;;;;4988884;28;20547;-74
2022/08/08 00:41:34;;;;;;;5.15;2.70;;;14.20;99.90;;;;;;4990167;28;20069;-73
2022/08/08 00:44:21;;;;;;;4.93;3.38;;;14.20;99.90;;;;;;4961191;28;20048;-73
2022/08/08 00:47:21;;;;;;;5.15;3.20;;;14.20;99.90;;;;;;4938753;28;20082;-73
2022/08/08 00:50:23;;;;;;;4.82;3.00;;;14.00;99.90;;;;;;4954374;28;20046;-75
2022/08/08 00:53:22;;;;;;;6.05;3.22;;;14.10;99.90;;;;;;4959919;28;20055;-73
2022/08/08 00:56:12;;;;;;;5.10;2.80;;;14.00;99.90;;;;;;4960948;28;20050;-74
2022/08/08 00:58:43;;;;;;;4.28;2.78;;;14.00;99.90;;;;;;4943156;28;20049;-75
2022/08/08 01:01:27;;;;;;;4.97;2.95;;;14.00;99.90;;;;;;4941469;28;20051;-74
2022/08/08 01:04:11;;;;;;;5.15;2.90;;;13.90;99.90;;;;;;4951401;28;20126;-71
2022/08/08 01:06:54;;;;;;;6.85;3.17;;;13.90;99.90;;;;;;4947773;28;20047;-75
2022/08/08 01:09:34;;;;;;;7.70;2.70;;;13.80;99.90;;;;;;4961494;28;20045;-74
2022/08/08 01:12:24;;;;;;;3.70;2.75;;;13.80;99.90;;;;;;4963274;28;20053;-74
2022/08/08 01:15:08;;;;;;;4.40;2.90;;;13.70;99.90;;;;;;5004547;28;20118;-73
2022/08/08 01:18:14;;;;;;;4.05;2.80;;;13.70;99.90;;;;;;4998246;28;20046;-74
2022/08/08 01:21:13;;;;;;;4.15;3.00;;;13.70;99.90;;;;;;5049242;28;20055;-74
2022/08/08 01:24:04;;;;;;;5.03;2.92;;;13.70;99.90;;;;;;5080178;28;20047;-74
2022/08/08 01:27:03;;;;;;;3.55;2.95;;;13.70;99.90;;;;;;5083717;28;20039;-72
2022/08/08 01:30:22;;;;;;;4.32;2.60;;;13.60;99.90;;;;;;5065041;28;20055;-74
2022/08/08 01:33:27;;;;;;;5.97;2.72;;;13.60;99.90;;;;;;5063230;28;20450;-73
2022/08/08 01:36:35;;;;;;;2.95;2.20;;;13.60;99.90;;;;;;5078888;28;20079;-74
2022/08/08 01:39:28;;;;;;;5.60;2.30;;;13.60;99.90;;;;;;5065564;28;20047;-74
2022/08/08 01:42:04;;;;;;;4.90;2.63;;;13.60;99.90;;;;;;5082643;28;20036;-73
2022/08/08 01:44:55;;;;;;;5.55;2.90;;;13.50;99.90;;;;;;5063374;28;20064;-73
2022/08/08 01:47:26;;;;;;;4.38;2.58;;;13.50;99.90;;;;;;5063574;28;20089;-75
2022/08/08 01:50:08;;;;;;;5.78;2.50;;;13.50;99.90;;;;;;5096946;28;20055;-74
2022/08/08 01:52:56;;;;;;;3.15;2.33;;;13.50;99.90;;;;;;5079423;28;20040;-74
2022/08/08 01:55:40;;;;;;;7.07;2.88;;;13.50;99.90;;;;;;5080534;28;20044;-73
2022/08/08 01:58:15;;;;;;;5.90;3.17;;;13.50;99.90;;;;;;5081896;28;20476;-73
2022/08/08 02:01:15;;;;;;;4.82;3.20;;;13.60;99.90;;;;;;5082635;28;20112;-74
2022/08/08 02:03:43;;;;;;;5.05;3.03;;;13.50;99.90;;;;;;5066917;28;20054;-75
2022/08/08 02:06:55;;;;;;;7.45;3.30;;;13.60;99.90;;;;;;5084827;28;20039;-74
2022/08/08 02:09:48;;;;;;;4.75;3.47;;;13.50;99.90;;;;;;5082711;28;20048;-74
2022/08/08 02:12:43;;;;;;;7.68;3.42;;;13.50;99.90;;;;;;5081576;28;20063;-73
2022/08/08 02:15:44;;;;;;;11.33;3.70;;;13.50;99.90;;;;;;5001095;28;20152;-74
2022/08/08 02:18:12;;;;;;;8.52;4.03;;;13.60;99.90;;;;;;4971745;28;20437;-72
2022/08/08 02:24:25;;;;;;;4.57;3.50;;;13.60;99.90;;;;;;5001738;28;20495;-73
2022/08/08 02:27:17;;;;;;;7.75;3.70;;;13.60;99.90;;;;;;4971968;28;20489;-74
2022/08/08 02:29:54;;;;;;;9.70;4.15;;;13.60;99.90;;;;;;4990130;28;20392;-72
2022/08/08 02:32:53;;;;;;;8.63;4.00;;;13.70;99.90;;;;;;4988765;28;20049;-72
2022/08/08 02:35:37;;;;;;;7.68;4.10;;;13.70;99.90;;;;;;4998997;28;20224;-72
2022/08/08 02:38:29;;;;;;;6.78;4.07;;;13.70;99.90;;;;;;4987782;28;20074;-73
2022/08/08 02:41:16;;;;;;;9.75;4.53;;;13.80;99.90;;;;;;4988637;28;20409;-74
2022/08/08 02:44:24;;;;;;;6.68;4.20;;;13.80;99.90;;;;;;4973529;28;20513;-74
2022/08/08 02:47:08;;;;;;;7.97;4.53;;;13.90;99.90;;;;;;4984511;28;20362;-72
2022/08/08 02:50:22;;;;;;;6.90;4.35;;;14.00;99.90;;;;;;5005806;28;20037;-74
2022/08/08 02:53:17;;;;;;;6.60;4.40;;;14.00;99.90;;;;;;5067783;28;20071;-75
2022/08/08 02:56:15;;;;;;;10.15;4.68;;;14.00;99.90;;;;;;5088744;28;20185;-75
2022/08/08 02:58:47;;;;;;;9.15;4.57;;;14.00;99.90;;;;;;5086667;28;20051;-71
2022/08/08 03:01:18;;;;;;;8.93;4.80;;;14.10;99.90;;;;;;5069402;28;20044;-74
2022/08/08 03:03:56;;;;;;;9.10;4.75;;;14.10;99.90;;;;;;5084267;28;20039;-74
2022/08/08 03:06:21;;;;;;;8.57;5.28;;;14.10;99.90;;;;;;5085599;28;20459;-74
2022/08/08 03:09:21;;;;;;;18.77;5.20;;;14.00;99.90;;;;;;5082356;28;20036;-73
2022/08/08 03:12:01;;;;;;;11.60;4.70;;;14.00;99.90;;;;;;5083115;28;20504;-73
2022/08/08 03:14:27;;;;;;;13.85;5.20;;;14.00;99.90;;;;;;5079993;28;20067;-73
2022/08/08 03:17:15;;;;;;;10.52;4.70;;;14.00;99.90;;;;;;5082678;28;20624;-74
2022/08/08 03:20:05;;;;;;;8.20;5.40;;;14.00;99.90;;;;;;5076433;28;20040;-75
2022/08/08 03:22:33;;;;;;;8.05;4.57;;;14.00;99.90;;;;;;5081982;28;20039;-74
2022/08/08 03:25:03;;;;;;;7.25;4.32;;;13.90;99.90;;;;;;5069460;28;20058;-72
2022/08/08 03:27:38;;;;;;;8.52;4.30;;;13.90;99.90;;;;;;5084094;28;20048;-72
2022/08/08 03:30:11;;;;;;;10.20;4.97;;;13.90;99.90;;;;;;5086264;28;20477;-75
2022/08/08 03:35:24;;;;;;;8.52;4.93;;;13.80;99.90;;;;;;5089201;28;20059;-73
2022/08/08 03:37:51;;;;;;;7.82;4.60;;;13.80;99.90;;;;;;5079436;28;20108;-72
2022/08/08 03:40:19;;;;;;;9.65;5.00;;;13.80;99.90;;;;;;5084175;28;20064;-73
2022/08/08 03:42:46;;;;;;;8.65;4.93;;;13.70;99.90;;;;;;5082868;28;20085;-72
2022/08/08 03:45:20;;;;;;;6.78;5.05;;;13.70;99.90;;;;;;5064469;28;20123;-75
2022/08/08 03:48:03;;;;;;;7.70;4.80;;;13.60;99.90;;;;;;5082106;28;20127;-74
2022/08/08 03:50:33;;;;;;;7.65;4.68;;;13.70;99.90;;;;;;5079590;28;20120;-74
2022/08/08 03:53:11;;;;;;;11.88;5.43;;;13.70;99.90;;;;;;5079206;28;20083;-73
2022/08/08 03:55:40;;;;;;;9.55;5.30;;;13.70;99.90;;;;;;5082549;28;20368;-73
2022/08/08 03:58:06;;;;;;;10.50;5.68;;;13.70;99.90;;;;;;5060812;28;20448;-74
2022/08/08 04:00:32;;;;;;;14.95;5.70;;;13.80;99.90;;;;;;5081488;28;20426;-74
2022/08/08 04:03:04;;;;;;;9.05;4.97;;;13.80;99.90;;;;;;5078472;28;20090;-75
2022/08/08 04:05:35;;;;;;;9.75;5.65;;;13.80;99.90;;;;;;5065633;28;20135;-74
2022/08/08 04:08:03;;;;;;;11.52;5.10;;;13.90;99.90;;;;;;5078142;28;20047;-75
2022/08/08 04:10:32;;;;;;;9.55;5.05;;;13.80;99.90;;;;;;5065401;28;20060;-74
2022/08/08 04:13:02;;;;;;;15.07;5.00;;;13.90;99.90;;;;;;5063524;28;20095;-75
2022/08/08 04:15:27;;;;;;;7.47;5.10;;;13.90;99.90;;;;;;5063646;28;20068;-73
2022/08/08 04:17:53;;;;;;;13.52;5.55;;;13.90;99.90;;;;;;5078206;28;20040;-74
2022/08/08 04:20:19;;;;;;;12.18;5.40;;;13.90;99.90;;;;;;5064751;28;20052;-73
2022/08/08 04:22:44;;;;;;;12.88;5.40;;;14.00;99.90;;;;;;5086420;28;20028;-74
2022/08/08 04:25:10;;;;;;;7.00;5.10;;;14.00;99.90;;;;;;5078849;28;20446;-72
2022/08/08 04:27:37;;;;;;;16.67;5.55;;;14.00;99.90;;;;;;5079023;28;20063;-72
2022/08/08 04:30:05;;;;;;;9.65;5.05;;;14.00;99.90;;;;;;5080977;28;20051;-72
2022/08/08 04:32:31;;;;;;;10.80;5.30;;;14.00;99.90;;;;;;5080455;28;20127;-76
2022/08/08 04:34:56;;;;;;;14.80;5.55;;;14.10;99.90;;;;;;5064918;28;20127;-74
2022/08/08 04:37:22;;;;;;;11.52;5.03;;;14.10;99.90;;;;;;5080040;28;20402;-72
2022/08/08 04:39:48;;;;;;;9.95;5.35;;;14.10;99.90;;;;;;5083925;28;20051;-73
2022/08/08 04:42:14;;;;;;;13.65;5.25;;;14.10;99.90;;;;;;5083549;28;20101;-74
2022/08/08 04:44:39;;;;;;;8.30;4.57;;;14.10;99.90;;;;;;5080434;28;20166;-74
2022/08/08 04:47:06;;;;;;;13.48;5.38;;;14.20;99.90;;;;;;5066489;28;20483;-75
2022/08/08 04:49:32;;;;;;;7.78;4.88;;;14.20;99.90;;;;;;5064964;28;20065;-73
2022/08/08 04:51:58;;;;;;;6.03;4.90;;;14.20;99.90;;;;;;5061120;28;20044;-74
2022/08/08 04:54:24;;;;;;;9.40;5.30;;;14.20;99.90;;;;;;5081060;28;20039;-73
2022/08/08 04:56:49;;;;;;;13.95;5.55;;;14.20;99.90;;;;;;5087828;28;20044;-74
2022/08/08 04:59:15;;;;;;;11.35;5.18;;;14.20;99.90;;;;;;5082168;28;20036;-74
2022/08/08 05:01:41;;;;;;;11.95;5.90;;;14.20;99.90;;;;;;5062868;28;20048;-73
2022/08/08 05:04:06;;;;;;;8.60;5.43;;;14.30;99.90;;;;;;5078627;28;20376;-75
2022/08/08 05:06:32;;;;;;;11.85;5.60;;;14.30;99.90;;;;;;5082164;28;20040;-71
2022/08/08 05:08:58;;;;;;;9.27;5.57;;;14.40;99.90;;;;;;5079243;28;20036;-72
2022/08/08 05:11:24;;;;;;;7.68;5.70;;;14.40;99.90;;;;;;5066503;28;20151;-73
2022/08/08 05:13:50;;;;;;;12.43;5.88;;;14.40;99.90;;;;;;5066162;28;20047;-74
2022/08/08 05:16:16;;;;;;;10.98;5.80;;;14.50;99.90;;;;;;5076672;28;20040;-75
2022/08/08 05:18:42;;;;;;;12.18;5.60;;;14.50;99.90;;;;;;5063621;28;20071;-73
2022/08/08 05:21:08;;;;;;;14.55;6.35;;;14.60;99.90;;;;;;5081126;28;20063;-75
2022/08/08 05:23:34;;;;;;;8.82;5.82;;;14.70;99.90;;;;;;5072329;28;20050;-73
2022/08/08 05:26:03;;;;;;;8.32;5.30;;;14.80;99.90;;;;;;5074522;28;20384;-73
2022/08/08 05:28:29;;;;;;;8.63;3.08;;;14.80;99.90;;;;;;5074465;28;20055;-72
2022/08/08 05:30:55;;;;;;;11.40;3.75;;;15.00;99.90;;;;;;5082500;28;20089;-73
2022/08/08 05:33:21;;;;;;;11.52;4.95;;;15.30;99.90;;;;;;5076514;28;20085;-73
2022/08/08 05:35:48;;;;;;;6.97;4.00;;;15.60;99.90;;;;;;5065468;28;20044;-74
2022/08/08 05:38:17;;;;;;;6.95;4.13;;;15.80;99.90;;;;;;5061915;28;20052;-73
2022/08/08 05:40:49;;;;;;;11.27;3.65;;;16.10;99.90;;;;;;5077786;28;22206;-74
2022/08/08 05:43:20;;;;;;;8.35;3.70;;;16.30;99.90;;;;;;5074288;28;20150;-73
2022/08/08 05:45:46;;;;;;;8.70;4.53;;;16.40;99.90;;;;;;5078391;28;20043;-71
2022/08/08 05:48:12;;;;;;;12.05;4.47;;;16.30;99.90;;;;;;5078190;28;20047;-70
2022/08/08 05:50:38;;;;;;;7.55;4.07;;;16.30;99.90;;;;;;5062812;28;20051;-72
2022/08/08 05:53:04;;;;;;;6.70;4.35;;;16.30;99.90;;;;;;5079835;28;20402;-72
2022/08/08 05:55:33;;;;;;;10.38;4.70;;;16.30;99.90;;;;;;5064327;28;20051;-75
2022/08/08 05:58:00;;;;;;;12.02;5.38;;;16.30;99.90;;;;;;5081326;28;20147;-73
2022/08/08 06:00:31;;;;;;;13.40;5.53;;;16.30;99.90;;;;;;5081815;28;20051;-73
2022/08/08 06:03:11;;;;;;;15.02;5.40;;;16.30;99.90;;;;;;5069924;28;20036;-73
2022/08/08 06:05:50;;;;;;;13.55;5.93;;;16.30;99.90;;;;;;5080640;28;20078;-72
2022/08/08 06:08:29;;;;;;;14.25;5.30;;;16.30;99.90;;;;;;5062635;28;20043;-74
2022/08/08 06:10:57;;;;;;;11.57;5.20;;;16.30;99.90;;;;;;5082081;28;20052;-75
2022/08/08 06:13:25;;;;;;;12.90;5.18;;;16.30;99.90;;;;;;5076514;28;20040;-75
2022/08/08 06:15:53;;;;;;;13.63;4.65;;;16.30;99.90;;;;;;5063655;28;21956;-75
2022/08/08 06:18:23;;;;;;;11.80;4.25;;;16.20;99.90;;;;;;5060724;28;20132;-74
2022/08/08 06:20:55;;;;;;;9.93;4.75;;;16.30;99.90;;;;;;5080459;28;20044;-75
2022/08/08 06:23:22;;;;;;;10.07;4.40;;;16.30;99.90;;;;;;5080743;28;20043;-75
2022/08/08 06:26:04;;;;;;;9.88;4.35;;;16.30;99.90;;;;;;5063998;28;20094;-75
2022/08/08 06:28:36;;;;;;;13.73;4.50;;;16.40;99.90;;;;;;5081390;28;20155;-73
2022/08/08 06:31:04;;;;;;;14.13;4.53;;;16.30;99.90;;;;;;5085652;28;20108;-74
2022/08/08 06:33:55;;;;;;;9.50;5.07;;;16.40;99.90;;;;;;5066816;28;20048;-74
2022/08/08 06:36:30;;;;;;;15.95;5.22;;;16.40;99.90;;;;;;5039554;28;20445;-73
2022/08/08 06:39:00;;;;;;;16.88;5.40;;;16.50;99.90;;;;;;5027086;28;20048;-77
2022/08/08 06:41:26;;;;;;;15.20;5.30;;;16.50;99.90;;;;;;5024999;28;20156;-74
2022/08/08 06:43:57;;;;;;;13.32;5.05;;;16.50;99.90;;;;;;5024276;28;20550;-75
2022/08/08 06:46:22;;;;;;;13.20;4.80;;;16.50;99.90;;;;;;5009503;28;20037;-73
2022/08/08 06:48:48;;;;;;;11.30;5.13;;;16.60;99.90;;;;;;5016110;28;20038;-73
2022/08/08 06:51:14;;;;;;;10.30;4.95;;;16.60;99.90;;;;;;5003746;28;20110;-74
2022/08/08 06:53:40;;;;;;;11.32;5.10;;;16.70;99.90;;;;;;5028190;28;20048;-74
2022/08/08 06:56:10;;;;;;;17.83;4.65;;;16.80;99.90;;;;;;5047442;28;20117;-75
2022/08/08 06:58:36;;;;;;;12.80;4.45;;;16.90;99.90;;;;;;5029709;28;20033;-73
2022/08/08 07:01:04;;;;;;;12.27;4.22;;;17.00;99.90;;;;;;5028269;28;20043;-72
2022/08/08 07:03:49;;;;;;;13.60;4.10;;;17.00;99.90;;;;;;5031085;28;20041;-75
2022/08/08 07:06:19;;;;;;;16.90;4.57;;;17.10;99.90;;;;;;5015521;28;20497;-73
2022/08/08 07:08:47;;;;;;;16.13;4.22;;;17.10;99.90;;;;;;5012130;28;20504;-72
2022/08/08 07:11:19;;;;;;;14.50;4.10;;;17.20;99.90;;;;;;5031846;28;20065;-74
2022/08/08 07:13:49;;;;;;;12.27;4.15;;;17.30;99.90;;;;;;5057521;28;20448;-74
2022/08/08 07:16:23;;;;;;;10.48;4.00;;;17.40;99.90;;;;;;5073131;28;20113;-73
2022/08/08 07:19:10;;;;;;;12.77;4.15;;;17.40;99.90;;;;;;5087433;28;20139;-73
2022/08/08 07:21:56;;;;;;;8.02;3.40;;;17.40;99.90;;;;;;5065832;28;20039;-74
2022/08/08 07:24:29;;;;;;;10.15;3.47;;;17.40;99.90;;;;;;5065546;28;20042;-74
2022/08/08 07:26:59;;;;;;;9.73;3.58;;;17.40;99.90;;;;;;5061787;28;20328;-73
2022/08/08 07:29:25;;;;;;;14.73;3.55;;;17.40;99.90;;;;;;5069182;28;20053;-74
2022/08/08 07:31:51;;;;;;;9.30;2.92;;;17.50;99.90;;;;;;5097499;28;20123;-75
2022/08/08 07:34:18;;;;;;;11.23;3.08;;;17.70;99.90;;;;;;5076265;28;20079;-72
2022/08/08 07:36:46;;;;;;;9.32;2.92;;;17.70;99.90;;;;;;5068572;28;20036;-73
2022/08/08 07:39:11;;;;;;;7.20;2.50;;;17.80;99.90;;;;;;5072908;28;20432;-70
2022/08/08 07:41:41;;;;;;;5.63;2.05;;;17.90;99.90;;;;;;5064755;28;20475;-71
2022/08/08 07:44:08;;;;;;;7.70;2.45;;;18.00;99.90;;;;;;5077970;28;20570;-73
2022/08/08 07:46:34;;;;;;;5.95;1.90;;;18.10;99.90;;;;;;5069899;28;20442;-74
2022/08/08 07:48:59;;;;;;;5.43;1.40;;;18.20;99.90;;;;;;5088287;28;20048;-71
2022/08/08 07:51:25;;;;;;;4.38;1.35;;;18.30;99.90;;;;;;5080509;28;20040;-74
2022/08/08 07:54:00;;;;;;;3.97;1.05;;;18.40;99.90;;;;;;5080693;28;20101;-73
2022/08/08 07:56:31;;;;;;;3.33;1.30;;;18.60;99.90;;;;;;5081637;28;20048;-73
2022/08/08 07:58:57;;;;;;;3.53;1.30;;;18.70;99.90;;;;;;5085449;28;20048;-72
2022/08/08 08:01:26;;;;;;;4.38;1.58;;;19.00;99.90;;;;;;5085787;28;20121;-73
2022/08/08 08:04:13;;;;;;;7.07;1.50;;;19.20;99.90;;;;;;5084361;28;20522;-70
2022/08/08 08:06:40;;;;;;;6.60;1.80;;;19.40;99.90;;;;;;5079455;28;20067;-71
2022/08/08 08:09:20;;;;;;;8.85;1.63;;;19.50;99.90;;;;;;5084373;28;20123;-73
2022/08/08 08:11:49;;;;;;;5.40;1.30;;;19.80;99.90;;;;;;5078449;28;20410;-72
2022/08/08 08:14:18;;;;;;;3.72;1.00;;;19.90;99.90;;;;;;5069791;28;20058;-73
2022/08/08 08:16:46;;;;;;;2.83;1.08;;;20.10;99.90;;;;;;5084928;28;20067;-72
2022/08/08 08:19:13;;;;;;;4.18;1.45;;;20.10;99.90;;;;;;5087487;28;20060;-72
2022/08/08 08:21:43;;;;;;;9.80;1.60;;;20.20;99.90;;;;;;5081661;28;21664;-72
2022/08/08 08:24:09;;;;;;;6.40;1.30;;;20.20;99.90;;;;;;5069592;28;20055;-72
2022/08/08 08:26:35;;;;;;;5.07;1.10;;;20.40;99.90;;;;;;5081550;28;20144;-71
2022/08/08 08:29:01;;;;;;;5.20;1.23;;;20.40;99.90;;;;;;5086269;28;20439;-73
2022/08/08 08:31:27;;;;;;;2.95;1.00;;;20.30;99.90;;;;;;5086510;28;20047;-74
2022/08/08 08:33:53;;;;;;;7.07;1.02;;;20.40;99.90;;;;;;5087729;28;20044;-73
2022/08/08 08:36:19;;;;;;;3.83;1.27;;;20.50;99.90;;;;;;5088631;28;20131;-72
2022/08/08 08:38:46;;;;;;;3.53;1.10;;;20.60;99.90;;;;;;5088686;28;20090;-70
2022/08/08 08:41:12;;;;;;;5.80;1.10;;;20.70;99.90;;;;;;5081170;28;20055;-72
2022/08/08 08:43:41;;;;;;;9.02;1.23;;;20.80;99.90;;;;;;5070158;28;20032;-72
2022/08/08 08:46:09;;;;;;;3.63;1.08;;;20.90;99.90;;;;;;5085952;28;20044;-73
2022/08/08 08:48:36;;;;;;;7.60;0.98;;;21.00;99.90;;;;;;5080121;28;20039;-73
2022/08/08 08:51:10;;;;;;;2.85;1.15;;;21.00;99.90;;;;;;5080702;28;20127;-71
2022/08/08 08:53:42;;;;;;;4.38;1.00;;;21.10;99.90;;;;;;5081050;28;20047;-71
2022/08/08 08:56:10;;;;;;;3.00;0.95;;;21.10;99.90;;;;;;5066578;28;20036;-71
2022/08/08 08:58:38;;;;;;;61.85;10.63;;;21.40;99.90;;;;;;5062578;28;20028;-77
2022/08/08 09:01:04;;;;;;;125.30;26.10;;;21.50;99.90;;;;;;5085222;28;20040;-72
2022/08/08 09:03:32;;;;;;;4.43;1.23;;;21.50;99.90;;;;;;5084352;28;20047;-72
2022/08/08 09:05:58;;;;;;;10.45;1.55;;;21.60;99.90;;;;;;5087533;28;20044;-71
2022/08/08 09:08:26;;;;;;;4.28;1.38;;;21.60;99.90;;;;;;5090389;28;20048;-72
2022/08/08 09:10:52;;;;;;;2.50;0.90;;;21.60;99.90;;;;;;5088407;28;20168;-72
2022/08/08 09:13:18;;;;;;;2.22;1.02;;;21.60;99.90;;;;;;5072231;28;20044;-74
2022/08/08 09:15:44;;;;;;;3.97;1.00;;;21.50;99.90;;;;;;5086134;28;20482;-72
2022/08/08 09:18:10;;;;;;;2.42;0.95;;;21.60;99.90;;;;;;5105021;28;20054;-73
2022/08/08 09:20:36;;;;;;;3.65;0.95;;;21.50;99.90;;;;;;5088547;28;20440;-73
2022/08/08 09:23:03;;;;;;;3.55;0.82;;;21.60;99.90;;;;;;5082022;28;20043;-71
2022/08/08 09:25:32;;;;;;;7.05;1.08;;;21.80;99.90;;;;;;5065875;28;20048;-73
2022/08/08 09:27:58;;;;;;;5.20;1.10;;;22.00;99.90;;;;;;5082833;28;20044;-73
2022/08/08 09:30:26;;;;;;;3.97;0.90;;;22.00;99.90;;;;;;5079819;28;20161;-73
2022/08/08 09:32:56;;;;;;;3.00;0.98;;;22.00;99.90;;;;;;5085334;28;20048;-74
2022/08/08 09:35:27;;;;;;;3.17;1.00;;;21.90;99.90;;;;;;5070195;28;20248;-71
2022/08/08 09:37:59;;;;;;;5.57;1.02;;;22.00;99.90;;;;;;5069985;28;20044;-72
2022/08/08 09:40:26;;;;;;;3.53;0.77;;;21.90;99.90;;;;;;5082753;28;20371;-73
2022/08/08 09:43:04;;;;;;;4.90;0.90;;;22.00;99.90;;;;;;5080421;28;20056;-73
2022/08/08 09:45:31;;;;;;;4.30;1.15;;;22.10;99.90;;;;;;5080302;28;20131;-72
2022/08/08 09:48:02;;;;;;;2.97;0.90;;;22.20;99.90;;;;;;5075453;28;20073;-74
2022/08/08 09:50:31;;;;;;;4.57;1.08;;;22.10;99.90;;;;;;5078539;28;20069;-73
2022/08/08 09:52:57;;;;;;;2.65;1.00;;;22.10;99.90;;;;;;5081897;28;20158;-72
2022/08/08 09:55:25;;;;;;;5.80;1.10;;;22.10;99.90;;;;;;5081763;28;20083;-74
2022/08/08 09:58:06;;;;;;;2.95;0.77;;;22.30;99.90;;;;;;5065554;28;20131;-74
2022/08/08 10:00:36;;;;;;;2.60;0.88;;;22.30;99.90;;;;;;5081812;28;20048;-73
2022/08/08 10:03:03;;;;;;;5.55;1.10;;;22.30;99.90;;;;;;5082491;28;20052;-72
2022/08/08 10:05:34;;;;;;;3.85;1.00;;;22.30;99.90;;;;;;5069936;28;20429;-71
2022/08/08 10:08:00;;;;;;;4.32;1.15;;;22.50;99.90;;;;;;5062131;28;20663;-73
2022/08/08 10:10:27;;;;;;;2.65;1.02;;;22.60;99.90;;;;;;5064224;28;20059;-73
2022/08/08 10:12:53;;;;;;;4.97;1.00;;;22.50;99.90;;;;;;5078704;28;20040;-72
2022/08/08 10:15:21;;;;;;;3.50;1.00;;;22.60;99.90;;;;;;5077707;28;20691;-73
2022/08/08 10:17:49;;;;;;;3.25;0.70;;;22.40;99.90;;;;;;5080509;28;20062;-73
2022/08/08 10:20:16;;;;;;;2.30;0.90;;;22.60;99.90;;;;;;5082909;28;20052;-74
2022/08/08 10:23:04;;;;;;;4.25;1.17;;;22.70;99.90;;;;;;5060867;28;20403;-72
2022/08/08 10:25:34;;;;;;;3.33;1.00;;;22.70;99.90;;;;;;5060670;28;20188;-73
2022/08/08 10:28:01;;;;;;;3.90;0.85;;;22.50;99.90;;;;;;5061563;28;20040;-72
2022/08/08 10:30:26;;;;;;;2.08;0.60;;;22.60;99.90;;;;;;5077485;28;20042;-72
2022/08/08 10:32:55;;;;;;;3.55;1.00;;;22.60;99.90;;;;;;5082543;28;20047;-73
2022/08/08 10:35:26;;;;;;;2.20;0.88;;;22.60;99.90;;;;;;5083797;28;20478;-72
2022/08/08 10:38:02;;;;;;;3.28;0.98;;;22.50;99.90;;;;;;5059793;28;20133;-73
2022/08/08 10:40:30;;;;;;;2.72;1.00;;;22.60;99.90;;;;;;5067760;28;20063;-72
2022/08/08 10:43:05;;;;;;;6.78;1.10;;;22.80;99.90;;;;;;5060377;28;20046;-71
2022/08/08 10:45:51;;;;;;;;;;;22.70;99.90;;;;;;5074747;28;20192;-73
2022/08/08 10:48:16;;;;;;;4.05;0.80;;;22.70;99.90;;;;;;5081012;28;19927;-74
2022/08/08 10:50:42;;;;;;;4.57;1.00;;;23.10;99.90;;;;;;5081135;28;20040;-73
2022/08/08 10:53:10;;;;;;;3.65;1.00;;;22.90;99.90;;;;;;5076339;28;20487;-75
2022/08/08 10:55:37;;;;;;;7.03;0.80;;;23.10;99.90;;;;;;5062513;28;20048;-74
2022/08/08 10:58:08;;;;;;;3.97;1.00;;;23.50;99.90;;;;;;5060476;28;20039;-75
2022/08/08 11:00:40;;;;;;;3.65;0.90;;;23.70;99.90;;;;;;5060843;28;20048;-73
2022/08/08 11:03:14;;;;;;;3.38;1.00;;;23.50;99.90;;;;;;5060867;28;20075;-73
2022/08/08 11:05:50;;;;;;;4.53;0.88;;;23.60;99.90;;;;;;5078991;28;20044;-71
2022/08/08 11:08:28;;;;;;;5.10;1.00;;;23.80;99.90;;;;;;5061612;28;20177;-73
2022/08/08 11:11:05;;;;;;;5.20;0.95;;;24.00;99.90;;;;;;5078730;28;20074;-73
2022/08/08 11:13:42;;;;;;;5.50;1.20;;;24.00;99.90;;;;;;5076328;28;20174;-73
2022/08/08 11:16:21;;;;;;;5.82;1.40;;;24.10;99.90;;;;;;5083849;28;20123;-74
2022/08/08 11:18:49;;;;;;;4.35;1.02;;;24.10;99.90;;;;;;5065367;28;20032;-74
2022/08/08 11:21:17;;;;;;;4.78;1.10;;;23.80;99.90;;;;;;5075826;28;20051;-73
2022/08/08 11:23:43;;;;;;;3.55;0.77;;;24.00;99.90;;;;;;5059283;28;20040;-76
2022/08/08 11:26:12;;;;;;;5.22;0.90;;;23.80;99.90;;;;;;5077737;28;20028;-74
2022/08/08 11:28:40;;;;;;;4.72;0.93;;;23.80;99.90;;;;;;5084247;28;20079;-72
2022/08/08 11:31:07;;;;;;;2.85;0.80;;;23.70;99.90;;;;;;5085932;28;20044;-71
2022/08/08 11:33:35;;;;;;;3.13;1.02;;;23.60;99.90;;;;;;5069148;28;20048;-72
2022/08/08 11:36:01;;;;;;;3.10;0.80;;;23.50;99.90;;;;;;5082841;28;20148;-73
2022/08/08 11:38:27;;;;;;;2.80;0.80;;;23.70;99.90;;;;;;5078492;28;20369;-72
2022/08/08 11:40:54;;;;;;;2.83;0.82;;;23.80;99.90;;;;;;5082691;28;20036;-73
2022/08/08 11:43:23;;;;;;;2.35;1.00;;;23.90;99.90;;;;;;5081541;28;20067;-72
2022/08/08 11:45:51;;;;;;;2.88;0.80;;;23.90;99.90;;;;;;5066766;28;20387;-73
2022/08/08 11:48:18;;;;;;;2.75;0.70;;;23.80;99.90;;;;;;5084337;28;20032;-73
2022/08/08 11:50:45;;;;;;;3.58;0.80;;;23.80;99.90;;;;;;5085323;28;20383;-73
2022/08/08 11:53:11;;;;;;;3.05;0.93;;;23.70;99.90;;;;;;5085103;28;20547;-72
2022/08/08 11:55:50;;;;;;;2.80;0.65;;;24.00;99.90;;;;;;5062751;28;20080;-72
2022/08/08 11:58:17;;;;;;;2.05;0.75;;;24.00;99.90;;;;;;5083347;28;20043;-72
2022/08/08 12:00:51;;;;;;;3.67;0.90;;;24.10;99.90;;;;;;5079356;28;20106;-71
2022/08/08 12:03:25;;;;;;;2.78;0.85;;;24.00;99.90;;;;;;5079476;28;20047;-73
2022/08/08 12:05:52;;;;;;;3.05;0.80;;;23.60;99.90;;;;;;5078389;28;20375;-71
2022/08/08 12:08:32;;;;;;;2.13;0.90;;;23.40;99.90;;;;;;5063282;28;20058;-71
2022/08/08 12:11:02;;;;;;;1.77;0.75;;;23.00;99.90;;;;;;5064850;28;20060;-71
2022/08/08 12:13:29;;;;;;;5.47;0.93;;;22.90;99.90;;;;;;5062232;28;20082;-72
2022/08/08 12:16:12;;;;;;;3.50;0.90;;;22.90;99.90;;;;;;5064329;28;20498;-71
2022/08/08 12:18:46;;;;;;;1.60;0.70;;;22.80;99.90;;;;;;5083368;28;20036;-72
2022/08/08 12:21:21;;;;;;;2.95;0.90;;;22.70;99.90;;;;;;5081205;28;20052;-71
2022/08/08 12:23:46;;;;;;;2.67;0.90;;;22.50;99.90;;;;;;5064333;28;20047;-72
2022/08/08 12:26:15;;;;;;;2.67;0.90;;;22.50;99.90;;;;;;5063038;28;20048;-71
2022/08/08 12:28:51;;;;;;;2.63;0.70;;;22.50;99.90;;;;;;5078772;28;20047;-71
2022/08/08 12:31:29;;;;;;;5.55;1.10;;;22.50;99.90;;;;;;5082343;28;20495;-71
2022/08/08 12:33:54;;;;;;;2.22;0.88;;;22.50;99.90;;;;;;5082323;28;20063;-72
2022/08/08 12:36:20;;;;;;;2.67;0.88;;;22.50;99.90;;;;;;5083391;28;20036;-71
2022/08/08 12:38:48;;;;;;;4.30;0.90;;;22.50;99.90;;;;;;5077291;28;20060;-71
2022/08/08 12:41:14;;;;;;;3.38;0.98;;;22.80;99.90;;;;;;5079525;28;20056;-71
2022/08/08 12:43:40;;;;;;;3.72;0.90;;;22.90;99.90;;;;;;5080796;28;20055;-71
2022/08/08 12:46:21;;;;;;;3.42;0.90;;;23.00;99.90;;;;;;5064065;28;21609;-71
2022/08/08 12:48:55;;;;;;;3.67;1.10;;;23.10;99.90;;;;;;5065530;28;20048;-71
2022/08/08 12:51:21;;;;;;;3.30;1.07;;;23.40;99.90;;;;;;5083387;28;20523;-72
2022/08/08 12:53:58;;;;;;;3.58;0.98;;;23.80;99.90;;;;;;5068632;28;20032;-72
2022/08/08 12:56:35;;;;;;;2.78;0.95;;;24.00;99.90;;;;;;5097045;28;20049;-71
2022/08/08 12:59:12;;;;;;;2.60;0.82;;;23.90;99.90;;;;;;5079774;28;20048;-72
2022/08/08 13:01:37;;;;;;;1.52;0.65;;;23.90;99.90;;;;;;5077317;28;20048;-72
2022/08/08 13:04:15;;;;;;;2.75;0.93;;;23.70;99.90;;;;;;5072862;28;20029;-72
2022/08/08 13:06:57;;;;;;;4.15;0.80;;;23.40;99.90;;;;;;5078026;28;20047;-71
2022/08/08 13:09:31;;;;;;;4.90;1.15;;;23.50;99.90;;;;;;5081872;28;20084;-71
2022/08/08 13:11:58;;;;;;;4.55;1.05;;;23.40;99.90;;;;;;5078297;28;20048;-71
2022/08/08 13:14:38;;;;;;;4.25;0.93;;;23.50;99.90;;;;;;5079595;28;20381;-73
2022/08/08 13:17:05;;;;;;;3.83;1.20;;;23.40;99.90;;;;;;5080881;28;20045;-73
2022/08/08 13:19:34;;;;;;;6.40;1.20;;;23.40;99.90;;;;;;5077281;28;20156;-71
2022/08/08 13:22:00;;;;;;;4.65;1.00;;;23.50;99.90;;;;;;5076975;28;20157;-72
2022/08/08 13:24:27;;;;;;;2.42;0.90;;;23.40;99.90;;;;;;5077744;28;20109;-73